createdAt,value
2023-02-17T00:02:06.531Z,78.41
2023-02-17T00:06:59.617Z,78.41
2023-02-17T00:11:53.404Z,78.72
2023-02-17T00:16:46.955Z,78.64
2023-02-17T00:21:39.721Z,78.61
2023-02-17T00:26:32.481Z,78.58
2023-02-17T00:31:25.608Z,78.71
2023-02-17T00:36:20.733Z,78.83
2023-02-17T00:41:13.561Z,78.66
2023-02-17T00:46:07.405Z,78.89
2023-02-17T00:51:00.778Z,78.95
2023-02-17T00:55:53.598Z,78.55
2023-02-17T01:00:46.430Z,78.74
2023-02-17T01:05:47.971Z,78.45
2023-02-17T01:10:43.019Z,78.47
2023-02-17T01:15:47.766Z,78.57
2023-02-17T01:20:42.063Z,78.48
2023-02-17T01:25:43.299Z,78.26
2023-02-17T01:30:36.543Z,78.40
2023-02-17T01:35:29.370Z,78.32
2023-02-17T01:40:22.202Z,78.35
2023-02-17T01:45:20.961Z,78.26
2023-02-17T01:50:14.064Z,78.37
2023-02-17T01:55:12.247Z,78.37
2023-02-17T02:00:07.855Z,78.35
2023-02-17T02:05:05.862Z,78.51
2023-02-17T02:10:00.378Z,78.62
2023-02-17T02:14:56.663Z,78.53
2023-02-17T02:20:17.792Z,78.33
2023-02-17T02:25:38.030Z,78.34
2023-02-17T02:31:09.510Z,78.43
2023-02-17T02:36:30.791Z,78.22
2023-02-17T02:41:30.738Z,78.17
2023-02-17T02:46:23.871Z,78.28
2023-02-17T02:51:35.798Z,78.47
2023-02-17T02:57:05.754Z,78.21
2023-02-17T03:02:12.060Z,78.39
2023-02-17T03:07:12.604Z,78.46
2023-02-17T03:12:07.818Z,78.66
2023-02-17T03:17:00.806Z,78.47
2023-02-17T03:21:59.089Z,78.90
2023-02-17T03:26:52.018Z,78.56
2023-02-17T03:31:45.093Z,78.83
2023-02-17T03:36:38.053Z,78.86
2023-02-17T03:41:30.915Z,79.14
2023-02-17T03:46:23.715Z,79.30
2023-02-17T03:51:26.912Z,79.24
2023-02-17T03:56:20.630Z,79.46
2023-02-17T04:01:14.564Z,79.25
2023-02-17T04:06:08.675Z,79.49
2023-02-17T04:11:03.517Z,79.56
2023-02-17T04:15:56.700Z,79.76
2023-02-17T04:20:51.492Z,79.54
2023-02-17T04:25:45.412Z,79.79
2023-02-17T04:30:41.241Z,80.08
2023-02-17T04:35:34.126Z,80.34
2023-02-17T04:40:26.931Z,80.23
2023-02-17T04:45:19.867Z,80.38
2023-02-17T04:50:13.317Z,80.58
2023-02-17T04:55:07.620Z,80.23
2023-02-17T05:00:00.565Z,80.58
2023-02-17T05:04:54.052Z,80.67
2023-02-17T05:09:47.041Z,80.69
2023-02-17T05:14:40.722Z,80.43
2023-02-17T05:19:33.563Z,80.93
2023-02-17T05:24:26.343Z,81.15
2023-02-17T05:29:19.126Z,80.93
2023-02-17T05:34:11.975Z,80.92
2023-02-17T05:39:04.884Z,81.12
2023-02-17T05:43:57.688Z,81.19
2023-02-17T05:48:50.453Z,81.16
2023-02-17T05:53:43.271Z,81.39
2023-02-17T05:58:36.239Z,81.50
2023-02-17T06:03:29.132Z,81.22
2023-02-17T06:08:21.940Z,81.15
2023-02-17T06:13:14.743Z,81.28
2023-02-17T06:18:07.585Z,81.28
2023-02-17T06:23:00.372Z,81.38
2023-02-17T06:27:53.149Z,81.40
2023-02-17T06:32:46.102Z,81.25
2023-02-17T06:37:38.913Z,81.46
2023-02-17T06:42:31.703Z,81.56
2023-02-17T06:47:24.500Z,81.68
2023-02-17T06:52:17.270Z,81.83
2023-02-17T06:57:10.056Z,81.53
2023-02-17T07:02:03.008Z,81.55
2023-02-17T07:06:56.014Z,81.66
2023-02-17T07:11:51.285Z,81.83
2023-02-17T07:16:44.129Z,81.63
2023-02-17T07:21:36.957Z,81.44
2023-02-17T07:26:29.720Z,81.32
2023-02-17T07:31:22.610Z,81.19
2023-02-17T07:36:17.604Z,81.28
2023-02-17T07:41:13.334Z,81.11
2023-02-17T07:46:08.018Z,81.14
2023-02-17T07:51:09.031Z,80.69
2023-02-17T07:56:06.866Z,80.60
2023-02-17T08:01:05.955Z,80.65
2023-02-17T08:05:58.765Z,80.52
2023-02-17T08:11:09.220Z,80.16
2023-02-17T08:16:05.401Z,79.96
2023-02-17T08:20:58.559Z,80.00
2023-02-17T08:25:51.330Z,80.09
2023-02-17T08:30:44.205Z,80.04
2023-02-17T08:35:37.093Z,79.31
2023-02-17T08:40:30.290Z,79.24
2023-02-17T08:45:25.961Z,79.26
2023-02-17T08:50:20.329Z,79.23
2023-02-17T08:55:13.114Z,79.52
2023-02-17T09:00:08.672Z,79.36
2023-02-17T09:05:01.788Z,79.21
2023-02-17T09:09:57.212Z,79.04
2023-02-17T09:14:50.065Z,79.10
2023-02-17T09:19:42.907Z,78.98
2023-02-17T09:24:38.863Z,78.80
2023-02-17T09:29:32.940Z,78.89
2023-02-17T09:34:25.729Z,78.80
2023-02-17T09:39:18.757Z,78.96
2023-02-17T09:44:23.260Z,79.30
2023-02-17T09:49:23.075Z,79.32
2023-02-17T09:54:22.961Z,79.46
2023-02-17T09:59:31.098Z,79.37
2023-02-17T10:04:29.337Z,79.37
2023-02-17T10:09:33.919Z,79.66
2023-02-17T10:14:36.374Z,79.40
2023-02-17T10:19:37.791Z,79.17
2023-02-17T10:24:30.659Z,78.89
2023-02-17T10:29:45.006Z,78.78
2023-02-17T10:34:43.807Z,79.15
2023-02-17T10:39:50.295Z,79.33
2023-02-17T10:44:43.235Z,79.22
2023-02-17T10:49:41.058Z,79.46
2023-02-17T10:54:46.556Z,79.87
2023-02-17T10:59:42.726Z,79.71
2023-02-17T11:04:43.693Z,79.70
2023-02-17T11:09:37.829Z,80.24
2023-02-17T11:14:33.287Z,80.29
2023-02-17T11:19:29.587Z,80.66
2023-02-17T11:24:22.702Z,80.92
2023-02-17T11:29:23.354Z,80.98
2023-02-17T11:34:24.107Z,80.83
2023-02-17T11:39:20.900Z,80.96
2023-02-17T11:44:24.968Z,81.07
2023-02-17T11:49:39.125Z,81.34
2023-02-17T11:54:49.413Z,81.75
2023-02-17T11:59:54.071Z,81.81
2023-02-17T12:05:00.752Z,82.00
2023-02-17T12:10:34.983Z,81.84
2023-02-17T12:15:43.530Z,81.70
2023-02-17T12:21:17.953Z,82.15
2023-02-17T12:26:28.909Z,82.24
2023-02-17T12:31:59.270Z,82.39
2023-02-17T12:36:53.268Z,82.35
2023-02-17T12:42:23.908Z,82.40
2023-02-17T12:47:22.925Z,82.32
2023-02-17T12:52:25.230Z,82.32
2023-02-17T12:57:28.936Z,82.64
2023-02-17T13:02:24.417Z,82.85
2023-02-17T13:07:26.617Z,83.00
2023-02-17T13:12:25.511Z,83.06
2023-02-17T13:17:31.674Z,83.05
2023-02-17T13:22:24.521Z,83.16
2023-02-17T13:27:30.217Z,83.22
2023-02-17T13:32:31.175Z,83.43
2023-02-17T13:37:40.748Z,83.65
2023-02-17T13:42:39.964Z,83.79
2023-02-17T13:47:37.983Z,83.90
2023-02-17T13:52:32.607Z,84.06
2023-02-17T13:57:31.469Z,84.03
2023-02-17T14:02:35.700Z,84.36
2023-02-17T14:07:29.119Z,84.52
2023-02-17T14:12:26.074Z,84.56
2023-02-17T14:17:33.681Z,84.90
2023-02-17T14:22:32.883Z,84.89
2023-02-17T14:27:25.740Z,84.97
2023-02-17T14:32:37.622Z,85.07
2023-02-17T14:37:32.164Z,85.18
2023-02-17T14:42:25.012Z,85.31
2023-02-17T14:47:17.799Z,85.48
2023-02-17T14:52:23.412Z,85.70
2023-02-17T14:57:17.875Z,85.56
2023-02-17T15:02:17.364Z,85.77
2023-02-17T15:07:14.356Z,85.62
2023-02-17T15:12:16.613Z,86.00
2023-02-17T15:17:09.388Z,85.89
2023-02-17T15:22:03.711Z,86.20
2023-02-17T15:26:56.511Z,86.20
2023-02-17T15:31:50.951Z,86.23
2023-02-17T15:36:44.212Z,86.44
2023-02-17T15:41:36.977Z,86.53
2023-02-17T15:46:33.214Z,86.59
2023-02-17T15:51:26.060Z,86.75
2023-02-17T15:56:22.363Z,86.69
2023-02-17T16:01:25.794Z,86.93
2023-02-17T16:06:18.578Z,86.91
2023-02-17T16:11:14.603Z,86.94
2023-02-17T16:16:16.914Z,86.99
2023-02-17T16:21:12.746Z,86.96
2023-02-17T16:26:07.716Z,87.07
2023-02-17T16:31:00.632Z,87.21
2023-02-17T16:35:53.504Z,87.03
2023-02-17T16:40:53.376Z,87.11
2023-02-17T16:46:03.933Z,87.18
2023-02-17T16:50:57.196Z,87.18
2023-02-17T16:55:50.566Z,87.28
2023-02-17T17:00:43.428Z,87.42
2023-02-17T17:05:36.823Z,87.59
2023-02-17T17:10:33.349Z,87.72
2023-02-17T17:15:26.734Z,87.93
2023-02-17T17:20:24.182Z,87.69
2023-02-17T17:25:17.230Z,87.67
2023-02-17T17:30:19.720Z,87.94
2023-02-17T17:35:12.925Z,87.92
2023-02-17T17:40:07.570Z,88.06
2023-02-17T17:45:00.416Z,87.86
2023-02-17T17:49:53.291Z,87.96
2023-02-17T17:54:46.111Z,87.96
2023-02-17T17:59:38.905Z,87.82
2023-02-17T18:04:31.855Z,87.98
2023-02-17T18:09:32.109Z,88.09
2023-02-17T18:14:25.310Z,88.09
2023-02-17T18:19:20.651Z,88.15
2023-02-17T18:24:13.795Z,88.07
2023-02-17T18:29:06.670Z,88.08
2023-02-17T18:33:59.492Z,88.30
2023-02-17T18:38:52.391Z,88.44
2023-02-17T18:43:45.193Z,88.39
2023-02-17T18:48:37.992Z,88.42
2023-02-17T18:53:30.891Z,88.58
2023-02-17T18:58:23.674Z,88.74
2023-02-17T19:03:16.686Z,88.82
2023-02-17T19:08:09.502Z,88.74
2023-02-17T19:13:02.294Z,89.01
2023-02-17T19:17:58.932Z,88.94
2023-02-17T19:22:51.963Z,89.06
2023-02-17T19:27:44.835Z,89.04
2023-02-17T19:32:37.667Z,89.09
2023-02-17T19:37:30.456Z,89.33
2023-02-17T19:42:23.328Z,89.38
2023-02-17T19:47:16.129Z,89.59
2023-02-17T19:52:09.165Z,89.78
2023-02-17T19:57:02.370Z,89.88
2023-02-17T20:01:56.245Z,89.91
2023-02-17T20:06:49.204Z,90.22
2023-02-17T20:11:42.238Z,90.27
2023-02-17T20:16:35.246Z,90.32
2023-02-17T20:21:30.456Z,90.69
2023-02-17T20:26:30.274Z,91.09
2023-02-17T20:31:24.480Z,91.09
2023-02-17T20:36:18.337Z,91.08
2023-02-17T20:41:16.101Z,91.50
2023-02-17T20:46:09.146Z,91.43
2023-02-17T20:51:04.282Z,91.32
2023-02-17T20:55:57.064Z,91.35
2023-02-17T21:00:49.954Z,91.34
2023-02-17T21:05:42.823Z,91.32
2023-02-17T21:10:35.852Z,91.35
2023-02-17T21:15:29.102Z,91.17
2023-02-17T21:20:26.913Z,91.07
2023-02-17T21:25:19.797Z,91.15
2023-02-17T21:30:13.884Z,91.17
2023-02-17T21:35:07.366Z,91.19
2023-02-17T21:40:00.380Z,91.27
2023-02-17T21:44:53.149Z,90.93
2023-02-17T21:49:48.427Z,90.72
2023-02-17T21:54:41.206Z,90.60
2023-02-17T21:59:34.018Z,90.54
2023-02-17T22:04:28.287Z,90.31
2023-02-17T22:09:21.128Z,90.23
2023-02-17T22:14:17.125Z,90.28
2023-02-17T22:19:14.359Z,90.28
2023-02-17T22:24:07.425Z,90.24
2023-02-17T22:29:00.320Z,90.14
2023-02-17T22:33:53.158Z,90.10
2023-02-17T22:38:46.275Z,89.74
2023-02-17T22:43:41.096Z,89.33
2023-02-17T22:48:35.840Z,89.04
2023-02-17T22:53:32.368Z,88.77
2023-02-17T22:58:27.369Z,88.58
2023-02-17T23:03:20.240Z,88.64
2023-02-17T23:08:13.066Z,88.26
2023-02-17T23:13:05.841Z,88.23
2023-02-17T23:17:58.664Z,87.94
2023-02-17T23:22:52.348Z,87.64
2023-02-17T23:27:45.129Z,87.72
2023-02-17T23:32:37.970Z,87.91
2023-02-17T23:37:30.824Z,87.74
2023-02-17T23:42:23.661Z,87.23
2023-02-17T23:47:16.417Z,86.36
2023-02-17T23:52:09.623Z,85.27
2023-02-17T23:57:02.426Z,84.24
